Time;durP1;ratioP1;P1;durP2;ratioP2;P2;SDS_P1;SDS_P2;PMS_P1;PMS_P2;Temp;Humidity;BMP_temperature;BMP_pressure;BME280_temperature;BME280_humidity;BME280_pressure;Samples;Min_cycle;Max_cycle;Signal;HPM_P1;HPM_P2
2023/01/18 00:00:29;;;;;;;38.67;21.50;;;;;;;;;;5094850;28;20209;-66
2023/01/18 00:02:57;;;;;;;37.22;24.15;;;;;;;;;;5094061;28;20194;-68
2023/01/18 00:05:24;;;;;;;32.30;20.30;;;;;;;;;;5094256;28;20200;-66
2023/01/18 00:07:52;;;;;;;41.72;21.52;;;;;;;;;;5093991;28;20190;-66
2023/01/18 00:10:21;;;;;;;40.50;22.35;;;;;;;;;;5093908;28;20236;-66
2023/01/18 00:12:49;;;;;;;53.40;22.65;;;;;;;;;;5094458;28;20218;-66
2023/01/18 00:15:16;;;;;;;31.75;22.05;;;;;;;;;;5094039;28;20382;-66
2023/01/18 00:17:50;;;;;;;33.50;21.95;;;;;;;;;;5094059;28;20201;-66
2023/01/18 00:20:18;;;;;;;40.33;22.17;;;;;;;;;;5094362;28;20239;-66
2023/01/18 00:22:45;;;;;;;29.13;20.83;;;;;;;;;;5094257;28;20550;-65
2023/01/18 00:25:12;;;;;;;33.80;21.70;;;;;;;;;;5093943;28;20193;-65
2023/01/18 00:27:41;;;;;;;40.58;24.17;;;;;;;;;;5093557;28;20626;-65
2023/01/18 00:30:09;;;;;;;40.50;23.10;;;;;;;;;;5093631;28;20189;-65
2023/01/18 00:32:37;;;;;;;35.47;21.13;;;;;;;;;;5093907;28;20193;-65
2023/01/18 00:35:06;;;;;;;39.67;23.23;;;;;;;;;;5093508;28;20200;-67
2023/01/18 00:37:34;;;;;;;31.55;22.23;;;;;;;;;;5093489;28;20663;-67
2023/01/18 00:40:01;;;;;;;37.83;21.63;;;;;;;;;;5093771;28;20194;-66
2023/01/18 00:45:14;;;;;;;36.20;22.40;;;;;;;;;;5093564;28;20180;-65
2023/01/18 00:47:41;;;;;;;36.25;23.10;;;;;;;;;;5093539;28;20709;-65
2023/01/18 00:50:09;;;;;;;36.42;21.80;;;;;;;;;;5093233;28;20193;-65
2023/01/18 00:52:37;;;;;;;38.58;22.45;;;;;;;;;;5093548;28;20538;-65
2023/01/18 00:55:05;;;;;;;38.25;23.33;;;;;;;;;;5093421;28;20200;-65
2023/01/18 00:57:32;;;;;;;41.20;22.80;;;;;;;;;;5093434;28;20189;-65
2023/01/18 00:59:59;;;;;;;31.85;21.80;;;;;;;;;;5093163;28;20193;-65
2023/01/18 01:02:27;;;;;;;42.45;22.40;;;;;;;;;;5093390;28;20202;-65
2023/01/18 01:07:40;;;;;;;37.95;21.98;;;;;;;;;;5093581;28;20251;-65
2023/01/18 01:10:08;;;;;;;34.15;22.33;;;;;;;;;;5093665;28;20193;-65
2023/01/18 01:26:20;;;;;;;32.05;23.25;;;;;;;;;;5093151;28;20226;-66
2023/01/18 01:28:51;;;;;;;36.20;21.95;;;;;;;;;;5093420;28;20554;-65
2023/01/18 01:31:19;;;;;;;40.88;22.80;;;;;;;;;;5093397;28;20209;-65
2023/01/18 01:33:48;;;;;;;40.05;21.42;;;;;;;;;;5093353;28;20276;-65
2023/01/18 01:36:16;;;;;;;36.65;23.73;;;;;;;;;;5093579;28;20194;-66
2023/01/18 01:38:44;;;;;;;37.78;22.67;;;;;;;;;;5092946;28;20220;-65
2023/01/18 01:41:14;;;;;;;35.20;24.75;;;;;;;;;;5093383;28;20201;-66
2023/01/18 01:43:46;;;;;;;31.00;21.05;;;;;;;;;;5093196;28;20187;-66
2023/01/18 01:46:16;;;;;;;36.40;21.73;;;;;;;;;;5093391;28;20194;-66
2023/01/18 01:48:44;;;;;;;44.80;22.33;;;;;;;;;;5093213;28;20196;-66
2023/01/18 01:51:12;;;;;;;38.85;23.05;;;;;;;;;;5093116;28;20234;-66
2023/01/18 01:53:40;;;;;;;33.28;20.50;;;;;;;;;;5093016;28;20668;-66
2023/01/18 01:56:08;;;;;;;34.83;21.52;;;;;;;;;;5093688;28;20225;-66
2023/01/18 01:58:36;;;;;;;33.00;22.33;;;;;;;;;;5093102;28;20191;-66
2023/01/18 02:01:03;;;;;;;27.00;19.38;;;;;;;;;;5093129;28;20200;-65
2023/01/18 02:03:31;;;;;;;32.92;21.15;;;;;;;;;;5093147;28;20193;-66
2023/01/18 02:06:02;;;;;;;34.33;21.67;;;;;;;;;;5093289;28;20201;-66
2023/01/18 02:08:31;;;;;;;37.40;21.70;;;;;;;;;;5093015;28;20192;-66
2023/01/18 02:10:58;;;;;;;36.08;21.98;;;;;;;;;;5092293;28;20312;-66
2023/01/18 02:13:26;;;;;;;36.53;21.13;;;;;;;;;;5092786;28;20627;-66
2023/01/18 02:15:59;;;;;;;31.25;21.08;;;;;;;;;;5096631;28;20199;-66
2023/01/18 02:18:30;;;;;;;32.03;20.75;;;;;;;;;;5096947;28;20181;-66
2023/01/18 02:21:05;;;;;;;46.47;20.98;;;;;;;;;;5096622;28;20193;-66
2023/01/18 02:23:36;;;;;;;31.60;18.15;;;;;;;;;;5096661;28;20192;-66
2023/01/18 02:26:18;;;;;;;34.97;20.02;;;;;;;;;;5096259;28;20188;-66
2023/01/18 02:28:51;;;;;;;34.95;19.88;;;;;;;;;;5096424;28;20182;-67
2023/01/18 02:31:20;;;;;;;28.10;18.33;;;;;;;;;;5096509;28;20218;-66
2023/01/18 02:33:51;;;;;;;37.28;19.88;;;;;;;;;;5096381;28;20202;-66
2023/01/18 02:36:26;;;;;;;30.55;19.40;;;;;;;;;;5096847;28;20192;-66
2023/01/18 02:38:56;;;;;;;33.67;19.42;;;;;;;;;;5096309;28;20185;-66
2023/01/18 02:46:29;;;;;;;27.40;18.30;;;;;;;;;;5095906;28;20201;-66
2023/01/18 02:47:11;;;;;;;31.88;20.02;;;;;;;;;;5095735;28;20234;-66
2023/01/18 02:49:38;;;;;;;34.25;20.02;;;;;;;;;;5096164;28;20195;-66
2023/01/18 02:52:07;;;;;;;36.97;18.48;;;;;;;;;;5095832;28;20227;-66
2023/01/18 02:54:36;;;;;;;31.42;19.17;;;;;;;;;;5095480;28;20194;-66
2023/01/18 02:57:05;;;;;;;37.97;20.60;;;;;;;;;;5095602;28;20194;-66
2023/01/18 02:59:36;;;;;;;28.08;19.35;;;;;;;;;;5095445;28;20193;-66
2023/01/18 03:02:05;;;;;;;30.17;18.40;;;;;;;;;;5096137;28;20190;-66
2023/01/18 03:04:36;;;;;;;30.40;19.30;;;;;;;;;;5095300;28;20201;-66
2023/01/18 03:07:06;;;;;;;34.35;18.85;;;;;;;;;;5095396;28;20182;-66
2023/01/18 03:09:33;;;;;;;26.85;17.63;;;;;;;;;;5095556;28;20194;-66
2023/01/18 03:12:03;;;;;;;30.48;18.90;;;;;;;;;;5095383;28;20229;-66
2023/01/18 03:14:38;;;;;;;27.15;18.98;;;;;;;;;;5095581;28;20642;-66
2023/01/18 03:17:07;;;;;;;29.75;21.05;;;;;;;;;;5095699;28;20191;-66
2023/01/18 03:23:36;;;;;;;27.50;18.58;;;;;;;;;;5095201;28;20184;-66
2023/01/18 03:25:10;;;;;;;33.03;19.83;;;;;;;;;;5093997;28;20231;-66
2023/01/18 03:35:54;;;;;;;32.20;18.48;;;;;;;;;;5094964;28;20691;-66
2023/01/18 03:38:22;;;;;;;26.10;19.65;;;;;;;;;;5095416;28;20190;-66
2023/01/18 03:40:49;;;;;;;29.17;18.30;;;;;;;;;;5095443;28;20193;-66
2023/01/18 03:43:19;;;;;;;32.92;20.38;;;;;;;;;;5094802;28;20204;-66
2023/01/18 03:45:49;;;;;;;27.38;18.83;;;;;;;;;;5094874;28;20198;-66
2023/01/18 03:48:17;;;;;;;37.63;18.80;;;;;;;;;;5094495;28;20192;-66
2023/01/18 03:50:47;;;;;;;32.70;20.15;;;;;;;;;;5095156;28;20662;-66
2023/01/18 03:53:17;;;;;;;29.35;18.52;;;;;;;;;;5094375;28;20212;-66
2023/01/18 03:55:47;;;;;;;35.78;20.05;;;;;;;;;;5094369;28;20203;-66
2023/01/18 03:58:17;;;;;;;34.70;19.00;;;;;;;;;;5078365;28;20270;-67
2023/01/18 04:00:44;;;;;;;34.50;19.65;;;;;;;;;;5073999;28;20648;-66
2023/01/18 04:03:12;;;;;;;30.42;18.25;;;;;;;;;;5074280;28;20216;-66
2023/01/18 04:05:40;;;;;;;28.00;18.17;;;;;;;;;;5074514;28;20199;-66
2023/01/18 04:08:07;;;;;;;26.58;17.58;;;;;;;;;;5074209;28;20198;-67
2023/01/18 04:10:34;;;;;;;28.45;19.73;;;;;;;;;;5073952;28;20205;-66
2023/01/18 04:13:01;;;;;;;32.17;17.40;;;;;;;;;;5074239;28;20230;-66
2023/01/18 04:15:29;;;;;;;29.70;18.30;;;;;;;;;;5074090;28;20190;-66
2023/01/18 04:17:56;;;;;;;24.58;17.88;;;;;;;;;;5074167;28;20222;-66
2023/01/18 04:20:24;;;;;;;31.20;19.98;;;;;;;;;;5074036;28;20194;-66
2023/01/18 04:22:52;;;;;;;35.75;18.58;;;;;;;;;;5074186;28;20224;-66
2023/01/18 04:25:19;;;;;;;30.35;18.27;;;;;;;;;;5074030;28;20216;-66
2023/01/18 04:27:46;;;;;;;35.67;19.85;;;;;;;;;;5073592;28;20198;-67
2023/01/18 04:30:14;;;;;;;28.23;18.95;;;;;;;;;;5073663;28;20655;-66
2023/01/18 04:32:41;;;;;;;29.88;17.75;;;;;;;;;;5073761;28;20213;-67
2023/01/18 04:35:09;;;;;;;26.90;19.13;;;;;;;;;;5073434;28;20198;-67
2023/01/18 04:37:38;;;;;;;31.90;18.85;;;;;;;;;;5073493;28;20201;-67
2023/01/18 04:40:06;;;;;;;24.38;17.98;;;;;;;;;;5073385;28;20208;-66
2023/01/18 04:42:34;;;;;;;28.75;17.83;;;;;;;;;;5073277;28;20212;-66
2023/01/18 04:45:01;;;;;;;31.85;19.35;;;;;;;;;;5073521;28;20197;-67
2023/01/18 04:47:28;;;;;;;23.50;17.95;;;;;;;;;;5073667;28;20289;-67
2023/01/18 04:49:56;;;;;;;30.23;18.60;;;;;;;;;;5073565;28;20552;-66
2023/01/18 04:52:25;;;;;;;33.35;19.15;;;;;;;;;;5073423;28;20216;-66
2023/01/18 04:54:54;;;;;;;30.02;18.25;;;;;;;;;;5073452;28;20553;-67
2023/01/18 04:57:21;;;;;;;27.45;18.17;;;;;;;;;;5073963;28;20199;-67
2023/01/18 04:59:48;;;;;;;30.52;18.00;;;;;;;;;;5073761;28;20198;-67
2023/01/18 05:02:15;;;;;;;27.20;17.38;;;;;;;;;;5073188;28;20209;-67
2023/01/18 05:04:43;;;;;;;29.42;17.77;;;;;;;;;;5073369;28;20278;-67
2023/01/18 05:07:10;;;;;;;25.88;18.17;;;;;;;;;;5092412;28;20189;-67
2023/01/18 05:09:38;;;;;;;25.27;16.95;;;;;;;;;;5093134;28;20193;-67
2023/01/18 05:12:06;;;;;;;27.60;18.38;;;;;;;;;;5092887;28;20713;-67
2023/01/18 05:14:34;;;;;;;32.97;18.67;;;;;;;;;;5093041;28;20280;-67
2023/01/18 05:17:01;;;;;;;29.35;18.33;;;;;;;;;;5093018;28;20198;-67
2023/01/18 05:19:29;;;;;;;28.67;18.33;;;;;;;;;;5093131;28;20768;-68
2023/01/18 05:21:56;;;;;;;25.85;17.05;;;;;;;;;;5093195;28;20242;-67
2023/01/18 05:24:23;;;;;;;30.15;16.42;;;;;;;;;;5093316;28;20548;-67
2023/01/18 05:26:51;;;;;;;29.80;19.20;;;;;;;;;;5093461;28;20189;-67
2023/01/18 05:29:19;;;;;;;25.48;17.23;;;;;;;;;;5093362;28;20200;-68
2023/01/18 05:31:47;;;;;;;23.88;16.63;;;;;;;;;;5093449;28;20201;-67
2023/01/18 05:34:14;;;;;;;24.27;17.13;;;;;;;;;;5093394;28;20193;-67
2023/01/18 05:36:41;;;;;;;23.88;16.58;;;;;;;;;;5093135;28;20200;-67
2023/01/18 05:39:09;;;;;;;29.48;17.85;;;;;;;;;;5093333;28;20194;-66
2023/01/18 05:41:36;;;;;;;27.98;18.80;;;;;;;;;;5093003;28;20243;-67
2023/01/18 05:44:03;;;;;;;27.85;17.58;;;;;;;;;;5092391;28;20198;-67
2023/01/18 05:46:32;;;;;;;28.98;18.27;;;;;;;;;;5092848;28;20279;-67
2023/01/18 05:48:59;;;;;;;23.42;18.52;;;;;;;;;;5094110;28;20643;-66
2023/01/18 05:51:26;;;;;;;29.88;17.75;;;;;;;;;;5096611;28;20208;-66
2023/01/18 05:53:54;;;;;;;28.45;17.85;;;;;;;;;;5097328;28;20249;-66
2023/01/18 05:56:21;;;;;;;31.85;18.27;;;;;;;;;;5097048;28;20200;-66
2023/01/18 05:58:48;;;;;;;32.53;18.15;;;;;;;;;;5096753;28;20710;-66
2023/01/18 06:01:15;;;;;;;29.02;18.23;;;;;;;;;;5096954;28;20193;-67
2023/01/18 06:03:44;;;;;;;26.88;18.52;;;;;;;;;;5096713;28;20197;-67
2023/01/18 06:06:11;;;;;;;25.83;18.27;;;;;;;;;;5096326;28;20284;-66
2023/01/18 06:08:38;;;;;;;27.08;17.20;;;;;;;;;;5096847;28;20229;-67
2023/01/18 06:11:06;;;;;;;26.08;17.55;;;;;;;;;;5096708;28;20221;-67
2023/01/18 06:13:33;;;;;;;33.67;21.60;;;;;;;;;;5096163;28;20205;-67
2023/01/18 06:16:01;;;;;;;33.75;18.73;;;;;;;;;;5096564;28;20197;-68
2023/01/18 06:18:30;;;;;;;36.70;19.23;;;;;;;;;;5096378;28;20225;-67
2023/01/18 06:20:58;;;;;;;26.60;16.98;;;;;;;;;;5096542;28;20197;-68
2023/01/18 06:23:26;;;;;;;30.48;19.85;;;;;;;;;;5096069;28;20209;-67
2023/01/18 06:25:53;;;;;;;23.98;16.88;;;;;;;;;;5096661;28;20194;-67
2023/01/18 06:28:21;;;;;;;22.58;16.73;;;;;;;;;;5096636;28;20193;-67
2023/01/18 06:30:50;;;;;;;25.60;16.52;;;;;;;;;;5096009;28;20197;-67
2023/01/18 06:33:17;;;;;;;31.83;19.60;;;;;;;;;;5096280;28;20209;-67
2023/01/18 06:35:45;;;;;;;33.03;17.92;;;;;;;;;;5096066;28;20299;-67
2023/01/18 06:38:13;;;;;;;27.67;18.15;;;;;;;;;;5095967;28;20289;-67
2023/01/18 06:40:41;;;;;;;26.88;18.45;;;;;;;;;;5096356;28;20680;-68
2023/01/18 06:43:09;;;;;;;29.05;19.60;;;;;;;;;;5096183;28;20198;-67
2023/01/18 06:45:36;;;;;;;24.00;16.65;;;;;;;;;;5095697;28;20251;-72
2023/01/18 06:48:03;;;;;;;33.22;18.45;;;;;;;;;;5096067;28;20554;-66
2023/01/18 06:50:31;;;;;;;25.65;17.60;;;;;;;;;;5095801;28;20200;-67
2023/01/18 06:52:58;;;;;;;25.15;18.25;;;;;;;;;;5095441;28;20219;-66
2023/01/18 06:55:26;;;;;;;33.55;19.48;;;;;;;;;;5095511;28;20678;-66
2023/01/18 06:57:55;;;;;;;28.35;17.95;;;;;;;;;;5095774;28;20288;-67
2023/01/18 07:00:23;;;;;;;26.85;17.92;;;;;;;;;;5095651;28;20297;-67
2023/01/18 07:02:52;;;;;;;26.02;18.48;;;;;;;;;;5095636;28;20531;-67
2023/01/18 07:05:19;;;;;;;27.65;18.35;;;;;;;;;;5095683;28;20276;-67
2023/01/18 07:07:46;;;;;;;32.13;19.30;;;;;;;;;;5095194;28;20201;-67
2023/01/18 07:10:13;;;;;;;28.92;17.60;;;;;;;;;;5095293;28;20197;-66
2023/01/18 07:12:45;;;;;;;28.42;18.17;;;;;;;;;;5095379;28;20255;-67
2023/01/18 07:15:13;;;;;;;30.10;18.05;;;;;;;;;;5095177;28;20185;-66
2023/01/18 07:17:40;;;;;;;23.42;16.30;;;;;;;;;;5095008;28;20197;-66
2023/01/18 07:20:08;;;;;;;23.08;16.58;;;;;;;;;;5095060;28;20200;-67
2023/01/18 07:22:35;;;;;;;31.80;18.63;;;;;;;;;;5094916;28;20201;-66
2023/01/18 07:25:02;;;;;;;29.73;17.92;;;;;;;;;;5095298;28;20193;-66
2023/01/18 07:27:29;;;;;;;26.15;18.65;;;;;;;;;;5095171;28;20200;-66
2023/01/18 07:29:58;;;;;;;26.70;19.05;;;;;;;;;;5095277;28;20198;-67
2023/01/18 07:32:25;;;;;;;23.63;18.77;;;;;;;;;;5094699;28;20678;-66
2023/01/18 07:34:52;;;;;;;25.23;18.05;;;;;;;;;;5094817;28;20207;-67
2023/01/18 07:37:19;;;;;;;30.83;17.05;;;;;;;;;;5095179;28;20534;-66
2023/01/18 07:39:46;;;;;;;27.70;17.77;;;;;;;;;;5094729;28;20659;-66
2023/01/18 07:42:14;;;;;;;33.28;19.10;;;;;;;;;;5095288;28;20602;-66
2023/01/18 07:44:41;;;;;;;27.55;18.85;;;;;;;;;;5094892;28;20197;-67
2023/01/18 07:47:09;;;;;;;27.35;17.85;;;;;;;;;;5095075;28;20199;-66
2023/01/18 07:49:37;;;;;;;31.00;20.23;;;;;;;;;;5094996;28;20193;-66
2023/01/18 07:52:04;;;;;;;31.27;19.42;;;;;;;;;;5094503;28;20196;-66
2023/01/18 07:54:31;;;;;;;28.88;18.35;;;;;;;;;;5094511;28;20223;-66
2023/01/18 07:56:58;;;;;;;36.83;22.17;;;;;;;;;;5094863;28;20192;-66
2023/01/18 07:59:26;;;;;;;24.65;18.13;;;;;;;;;;5094320;28;20193;-66
2023/01/18 08:01:53;;;;;;;31.50;17.90;;;;;;;;;;5094136;28;20195;-66
2023/01/18 08:04:23;;;;;;;24.52;19.42;;;;;;;;;;5094996;28;20297;-66
2023/01/18 08:06:51;;;;;;;29.20;19.27;;;;;;;;;;5094953;28;20193;-66
2023/01/18 08:09:18;;;;;;;24.42;17.20;;;;;;;;;;5094429;28;20646;-66
2023/01/18 08:11:45;;;;;;;34.97;20.27;;;;;;;;;;5093825;28;20304;-66
2023/01/18 08:14:12;;;;;;;31.13;19.75;;;;;;;;;;5094340;28;20228;-66
2023/01/18 08:16:39;;;;;;;32.30;20.23;;;;;;;;;;5094284;28;20275;-67
2023/01/18 08:19:07;;;;;;;32.83;19.88;;;;;;;;;;5094247;28;20196;-66
2023/01/18 08:21:35;;;;;;;37.08;19.92;;;;;;;;;;5094244;28;20196;-66
2023/01/18 08:24:02;;;;;;;33.25;19.58;;;;;;;;;;5093809;28;20654;-67
2023/01/18 08:26:29;;;;;;;30.23;19.92;;;;;;;;;;5093838;28;20274;-66
2023/01/18 08:28:58;;;;;;;31.33;20.85;;;;;;;;;;5093759;28;20194;-66
2023/01/18 08:31:25;;;;;;;30.02;20.67;;;;;;;;;;5094120;28;20197;-66
2023/01/18 08:33:52;;;;;;;33.33;20.70;;;;;;;;;;5093955;28;20219;-66
2023/01/18 08:36:20;;;;;;;30.27;19.42;;;;;;;;;;5094178;28;20200;-66
2023/01/18 08:38:50;;;;;;;31.17;21.45;;;;;;;;;;5094183;28;20576;-66
2023/01/18 08:41:17;;;;;;;31.35;19.67;;;;;;;;;;5093474;28;20194;-66
2023/01/18 08:43:46;;;;;;;31.45;19.98;;;;;;;;;;5093761;28;20200;-66
2023/01/18 08:46:14;;;;;;;29.42;19.92;;;;;;;;;;5093855;28;20205;-66
2023/01/18 08:48:42;;;;;;;28.35;18.95;;;;;;;;;;5093753;28;20193;-66
2023/01/18 08:51:10;;;;;;;34.20;21.08;;;;;;;;;;5094237;28;20189;-66
2023/01/18 08:53:37;;;;;;;32.20;18.73;;;;;;;;;;5093777;28;20222;-66
2023/01/18 08:56:06;;;;;;;31.02;20.60;;;;;;;;;;5093458;28;20196;-66
2023/01/18 08:58:33;;;;;;;28.25;19.75;;;;;;;;;;5093675;28;20189;-66
2023/01/18 09:01:01;;;;;;;55.38;21.55;;;;;;;;;;5093656;28;20201;-66
2023/01/18 09:03:28;;;;;;;36.97;20.25;;;;;;;;;;5093857;28;20566;-66
2023/01/18 09:05:55;;;;;;;33.15;22.70;;;;;;;;;;5093864;28;20198;-66
2023/01/18 09:08:22;;;;;;;35.95;22.23;;;;;;;;;;5093782;28;20284;-66
2023/01/18 09:10:49;;;;;;;35.63;21.98;;;;;;;;;;5093194;28;20190;-66
2023/01/18 09:13:18;;;;;;;37.80;22.15;;;;;;;;;;5093153;28;20221;-66
2023/01/18 09:15:45;;;;;;;36.88;21.60;;;;;;;;;;5094113;28;20190;-66
2023/01/18 09:18:12;;;;;;;42.65;21.75;;;;;;;;;;5093150;28;20663;-66
2023/01/18 09:20:41;;;;;;;30.92;20.90;;;;;;;;;;5093456;28;20193;-66
2023/01/18 09:23:09;;;;;;;32.08;21.70;;;;;;;;;;5093715;28;20554;-66
2023/01/18 09:25:39;;;;;;;32.28;22.02;;;;;;;;;;5097834;28;20603;-66
2023/01/18 09:28:07;;;;;;;29.60;20.92;;;;;;;;;;5098114;28;20189;-66
2023/01/18 09:30:35;;;;;;;28.83;21.35;;;;;;;;;;5097241;28;20209;-66
2023/01/18 09:33:02;;;;;;;27.95;21.10;;;;;;;;;;5097350;28;20196;-66
2023/01/18 09:35:30;;;;;;;27.45;20.98;;;;;;;;;;5097648;28;20231;-66
2023/01/18 09:37:57;;;;;;;29.33;19.70;;;;;;;;;;5096963;28;20699;-66
2023/01/18 09:40:27;;;;;;;38.63;21.63;;;;;;;;;;5096368;28;20216;-66
2023/01/18 09:42:54;;;;;;;33.38;23.45;;;;;;;;;;5097237;28;20189;-67
2023/01/18 09:45:25;;;;;;;29.65;20.65;;;;;;;;;;5096887;28;20193;-66
2023/01/18 09:47:57;;;;;;;40.08;22.20;;;;;;;;;;5097361;28;20177;-67
2023/01/18 09:50:25;;;;;;;31.25;18.70;;;;;;;;;;5096908;28;20184;-66
2023/01/18 09:52:56;;;;;;;34.25;22.77;;;;;;;;;;5097565;28;20292;-66
2023/01/18 09:55:27;;;;;;;29.45;21.40;;;;;;;;;;5097289;28;20182;-66
2023/01/18 09:58:00;;;;;;;30.60;21.05;;;;;;;;;;5096676;28;20300;-66
2023/01/18 10:00:29;;;;;;;32.88;21.08;;;;;;;;;;5096673;28;20277;-66
2023/01/18 10:02:59;;;;;;;36.83;22.85;;;;;;;;;;5097129;28;20207;-66
2023/01/18 10:05:28;;;;;;;34.20;22.42;;;;;;;;;;5096863;28;20263;-66
2023/01/18 10:08:02;;;;;;;31.05;20.60;;;;;;;;;;5096413;28;20200;-66
2023/01/18 10:10:31;;;;;;;24.30;17.52;;;;;;;;;;5096291;28;20178;-66
2023/01/18 10:13:04;;;;;;;37.33;20.92;;;;;;;;;;5096235;28;20217;-66
2023/01/18 10:15:35;;;;;;;29.23;21.83;;;;;;;;;;5096676;28;20182;-66
2023/01/18 10:18:10;;;;;;;30.45;23.55;;;;;;;;;;5096456;28;20182;-66
2023/01/18 10:20:42;;;;;;;30.30;22.60;;;;;;;;;;5096578;28;20264;-66
2023/01/18 10:23:13;;;;;;;40.17;24.73;;;;;;;;;;5096295;28;20192;-66
2023/01/18 10:25:42;;;;;;;34.45;21.90;;;;;;;;;;5096424;28;20194;-66
2023/01/18 10:28:24;;;;;;;33.08;22.63;;;;;;;;;;5096164;28;20205;-66
2023/01/18 10:30:56;;;;;;;28.00;21.88;;;;;;;;;;5096131;28;20181;-66
2023/01/18 10:33:26;;;;;;;37.50;21.00;;;;;;;;;;5096792;28;20273;-66
2023/01/18 10:35:55;;;;;;;26.15;20.50;;;;;;;;;;5095716;28;20198;-66
2023/01/18 10:38:24;;;;;;;43.20;23.75;;;;;;;;;;5096774;28;20189;-66
2023/01/18 10:40:55;;;;;;;33.22;22.40;;;;;;;;;;5096110;28;20284;-66
2023/01/18 10:43:24;;;;;;;35.63;23.70;;;;;;;;;;5096690;28;20227;-66
2023/01/18 10:45:52;;;;;;;31.85;22.88;;;;;;;;;;5095600;28;20191;-66
2023/01/18 10:48:24;;;;;;;34.25;23.83;;;;;;;;;;5095995;28;20247;-66
2023/01/18 10:50:54;;;;;;;35.72;22.38;;;;;;;;;;5096083;28;20186;-66
2023/01/18 10:53:26;;;;;;;29.05;21.48;;;;;;;;;;5095621;28;20670;-66
2023/01/18 10:55:54;;;;;;;39.63;24.58;;;;;;;;;;5095616;28;20178;-66
2023/01/18 10:58:24;;;;;;;36.80;24.40;;;;;;;;;;5095583;28;20647;-66
2023/01/18 11:00:53;;;;;;;34.63;23.63;;;;;;;;;;5095503;28;20183;-66
2023/01/18 11:03:21;;;;;;;34.35;22.67;;;;;;;;;;5095989;28;20199;-66
2023/01/18 11:05:48;;;;;;;32.60;22.55;;;;;;;;;;5095302;28;20197;-66
2023/01/18 11:08:24;;;;;;;34.30;22.60;;;;;;;;;;5096129;28;20194;-66
2023/01/18 11:11:01;;;;;;;38.15;23.05;;;;;;;;;;5095196;28;20280;-66
2023/01/18 11:13:31;;;;;;;37.70;24.10;;;;;;;;;;5095413;28;20184;-66
2023/01/18 11:16:19;;;;;;;31.30;21.55;;;;;;;;;;5095215;28;20194;-66
2023/01/18 11:18:56;;;;;;;31.70;23.60;;;;;;;;;;5090623;28;20308;-66
2023/01/18 11:21:24;;;;;;;37.90;24.15;;;;;;;;;;5095009;28;20197;-66
2023/01/18 11:23:54;;;;;;;31.65;23.95;;;;;;;;;;5095363;28;20200;-66
2023/01/18 11:26:22;;;;;;;34.67;27.02;;;;;;;;;;5095188;28;20227;-66
2023/01/18 11:28:53;;;;;;;38.47;26.10;;;;;;;;;;5095347;28;20225;-66
2023/01/18 11:31:26;;;;;;;34.45;23.92;;;;;;;;;;5094883;28;20182;-66
2023/01/18 11:33:54;;;;;;;34.72;25.45;;;;;;;;;;5095595;28;20216;-66
2023/01/18 11:36:33;;;;;;;44.67;26.92;;;;;;;;;;5094922;28;20553;-66
2023/01/18 11:39:15;;;;;;;30.55;23.35;;;;;;;;;;5095586;28;20598;-66
2023/01/18 11:41:44;;;;;;;34.15;23.35;;;;;;;;;;5094596;28;20201;-66
2023/01/18 11:44:17;;;;;;;38.25;25.45;;;;;;;;;;5094633;28;20654;-66
2023/01/18 11:46:51;;;;;;;33.25;25.10;;;;;;;;;;5093993;28;20192;-66
2023/01/18 11:49:28;;;;;;;41.55;26.02;;;;;;;;;;5094655;28;20186;-66
2023/01/18 11:51:57;;;;;;;39.00;25.75;;;;;;;;;;5095253;28;20215;-66
2023/01/18 11:54:28;;;;;;;37.10;24.58;;;;;;;;;;5094667;28;20249;-66
2023/01/18 11:56:58;;;;;;;35.63;24.30;;;;;;;;;;5094799;28;20193;-66
2023/01/18 11:59:26;;;;;;;33.15;24.10;;;;;;;;;;5094371;28;20199;-66
2023/01/18 12:02:17;;;;;;;34.97;25.73;;;;;;;;;;5094264;28;20198;-66
2023/01/18 12:04:55;;;;;;;34.83;25.02;;;;;;;;;;5078912;28;20205;-66
2023/01/18 12:07:27;;;;;;;38.53;26.27;;;;;;;;;;5094212;28;20184;-66
2023/01/18 12:09:56;;;;;;;39.35;26.45;;;;;;;;;;5094770;28;20186;-66
2023/01/18 12:12:31;;;;;;;32.78;26.02;;;;;;;;;;5093933;28;20244;-66
2023/01/18 12:15:07;;;;;;;35.83;24.65;;;;;;;;;;5094371;28;20202;-66
2023/01/18 12:17:42;;;;;;;32.50;24.05;;;;;;;;;;5094334;28;20194;-66
2023/01/18 12:20:21;;;;;;;33.22;24.23;;;;;;;;;;5093951;28;20186;-66
2023/01/18 12:23:01;;;;;;;37.22;24.15;;;;;;;;;;5094435;28;20208;-66
2023/01/18 12:25:39;;;;;;;32.95;24.15;;;;;;;;;;5094055;28;20209;-66
2023/01/18 12:28:12;;;;;;;33.83;24.75;;;;;;;;;;5094321;28;20183;-66
2023/01/18 12:30:47;;;;;;;34.55;26.00;;;;;;;;;;5093755;28;20620;-66
2023/01/18 12:33:24;;;;;;;31.98;24.98;;;;;;;;;;5094144;28;20187;-66
2023/01/18 12:36:06;;;;;;;33.58;25.60;;;;;;;;;;5094002;28;20210;-66
2023/01/18 12:38:34;;;;;;;34.15;23.75;;;;;;;;;;5091838;28;20200;-66
2023/01/18 12:41:16;;;;;;;33.08;24.63;;;;;;;;;;5093484;28;20195;-66
2023/01/18 12:43:50;;;;;;;35.28;22.70;;;;;;;;;;5091919;28;20230;-66
2023/01/18 12:46:18;;;;;;;40.45;26.13;;;;;;;;;;5093848;28;20294;-66
2023/01/18 12:48:47;;;;;;;25.65;21.33;;;;;;;;;;5093862;28;20204;-66
2023/01/18 12:51:17;;;;;;;32.45;23.23;;;;;;;;;;5093416;28;20647;-66
2023/01/18 12:53:45;;;;;;;33.85;22.67;;;;;;;;;;5094114;28;20231;-66
2023/01/18 12:56:15;;;;;;;27.58;20.38;;;;;;;;;;5093465;28;20249;-66
2023/01/18 12:58:43;;;;;;;35.10;22.15;;;;;;;;;;5093095;28;20199;-66
2023/01/18 13:01:15;;;;;;;33.33;21.35;;;;;;;;;;5093539;28;20252;-66
2023/01/18 13:03:44;;;;;;;28.38;20.83;;;;;;;;;;5093976;28;20183;-66
2023/01/18 13:06:11;;;;;;;32.13;18.52;;;;;;;;;;5093423;28;20210;-66
2023/01/18 13:08:40;;;;;;;25.17;19.63;;;;;;;;;;5094125;28;20205;-65
2023/01/18 13:11:09;;;;;;;25.23;18.63;;;;;;;;;;5093251;28;20575;-66
2023/01/18 13:13:36;;;;;;;31.40;19.58;;;;;;;;;;5093533;28;20210;-65
2023/01/18 13:16:10;;;;;;;24.70;18.88;;;;;;;;;;5093525;28;20216;-66
2023/01/18 13:18:41;;;;;;;23.30;18.63;;;;;;;;;;5093407;28;20645;-66
2023/01/18 13:21:13;;;;;;;30.27;20.42;;;;;;;;;;5093544;28;20244;-66
2023/01/18 13:23:47;;;;;;;21.20;17.85;;;;;;;;;;5093815;28;20278;-66
2023/01/18 13:26:20;;;;;;;27.02;19.70;;;;;;;;;;5093830;28;20185;-66
2023/01/18 13:28:47;;;;;;;24.25;17.83;;;;;;;;;;5093072;28;20189;-66
2023/01/18 13:31:14;;;;;;;29.27;16.63;;;;;;;;;;5092974;28;20192;-66
2023/01/18 13:33:44;;;;;;;23.17;16.95;;;;;;;;;;5093126;28;20675;-66
2023/01/18 13:36:13;;;;;;;23.17;17.48;;;;;;;;;;5093169;28;20223;-66
2023/01/18 13:38:48;;;;;;;25.60;17.65;;;;;;;;;;5093350;28;20294;-66
2023/01/18 13:41:16;;;;;;;34.47;16.75;;;;;;;;;;5092994;28;20192;-69
2023/01/18 13:44:01;;;;;;;22.73;14.80;;;;;;;;;;5093433;28;20207;-66
2023/01/18 13:46:29;;;;;;;23.60;15.60;;;;;;;;;;5093427;28;20199;-66
2023/01/18 13:48:59;;;;;;;19.23;15.85;;;;;;;;;;5093300;28;20197;-65
2023/01/18 13:51:46;;;;;;;24.88;16.15;;;;;;;;;;5092887;28;20243;-65
2023/01/18 13:54:16;;;;;;;16.38;14.68;;;;;;;;;;5093551;28;20228;-66
2023/01/18 13:57:08;;;;;;;16.73;13.80;;;;;;;;;;5085282;28;20188;-66
2023/01/18 13:59:36;;;;;;;16.85;13.07;;;;;;;;;;5073640;28;20258;-66
2023/01/18 14:02:07;;;;;;;16.35;12.20;;;;;;;;;;5092386;28;20530;-66
2023/01/18 14:04:36;;;;;;;16.85;13.50;;;;;;;;;;5092591;28;20204;-66
2023/01/18 14:07:04;;;;;;;21.20;13.95;;;;;;;;;;5092533;28;20192;-66
2023/01/18 14:09:41;;;;;;;17.20;14.00;;;;;;;;;;5092794;28;20197;-65
2023/01/18 14:12:09;;;;;;;20.60;11.02;;;;;;;;;;5096226;28;20226;-66
2023/01/18 14:14:52;;;;;;;17.92;12.50;;;;;;;;;;5096772;28;20202;-65
2023/01/18 14:17:19;;;;;;;17.13;11.88;;;;;;;;;;5096063;28;20193;-65
2023/01/18 14:20:11;;;;;;;15.50;11.80;;;;;;;;;;5096221;28;20206;-65
2023/01/18 14:22:46;;;;;;;18.85;10.85;;;;;;;;;;5096654;28;20192;-64
2023/01/18 14:25:21;;;;;;;13.63;10.13;;;;;;;;;;5096484;28;20184;-65
2023/01/18 14:27:50;;;;;;;12.32;11.02;;;;;;;;;;5096435;28;20182;-65
2023/01/18 14:30:21;;;;;;;19.95;11.68;;;;;;;;;;5096411;28;20207;-66
2023/01/18 14:32:55;;;;;;;20.05;11.60;;;;;;;;;;5096086;28;20268;-66
2023/01/18 14:35:25;;;;;;;16.42;10.10;;;;;;;;;;5096079;28;20215;-66
2023/01/18 14:37:53;;;;;;;20.65;11.60;;;;;;;;;;5096392;28;20187;-65
2023/01/18 14:40:23;;;;;;;15.90;10.85;;;;;;;;;;5096042;28;20199;-65
2023/01/18 14:42:52;;;;;;;18.17;11.20;;;;;;;;;;5096382;28;20210;-64
2023/01/18 14:45:27;;;;;;;13.02;10.73;;;;;;;;;;5096431;28;20200;-66
2023/01/18 14:47:55;;;;;;;13.70;10.35;;;;;;;;;;5095903;28;20499;-65
2023/01/18 14:50:24;;;;;;;16.48;10.85;;;;;;;;;;5095524;28;20196;-65
2023/01/18 14:52:52;;;;;;;16.08;11.40;;;;;;;;;;5095973;28;20203;-65
2023/01/18 14:55:24;;;;;;;17.63;11.88;;;;;;;;;;5095467;28;20716;-65
2023/01/18 14:57:52;;;;;;;14.57;11.27;;;;;;;;;;5095693;28;20204;-66
2023/01/18 15:00:20;;;;;;;23.33;12.55;;;;;;;;;;5095741;28;20200;-65
2023/01/18 15:02:47;;;;;;;15.52;11.60;;;;;;;;;;5095650;28;20199;-65